Cmb Sakura — 3EGO3 — position and weather

sailwx.info

Track history (hours):
 
Tides and Currents Weather Stations Pressure Air Temp Water Temp Dewpoint Dewpoint Depression Visibility Wind Speed Wind Dir Waves Ship Positions

Cmb Sakura

Last reported at 2016-May-24 15:04 UTC. Time now 2016-May-28 00:07 UTC.
Position S 33°52' E 017°57'.

Length 225 m; draft 7.6 m.

Type: Cargo ship. MMSI: 371784000.

Date/timePositionNaut miles runAvg speedWind from/ knotsBaromVisibWave heightAir tempDewpointWater temp
2016-May-24 15:04S 33°52' E 017°57'611.4
2016-May-24 14:33S 33°51' E 018°04'7 7.0
2016-May-24 13:32S 33°50' E 018°13'0 0.5
2016-May-24 12:32S 33°50' E 018°13'1 0.7
2016-May-24 11:32S 33°51' E 018°13'1 0.7
2016-May-24 10:33S 33°51' E 018°12'2 2.4
2016-May-24 09:33S 33°53' E 018°11'5 5.3
2016-May-24 08:33S 33°59' E 018°10'10 6.6
2016-May-24 07:04S 34°08' E 018°12'16 9.3
2016-May-24 05:23S 34°23' E 018°20'  
Track history (hours):
 
Tides and Currents Weather Stations Pressure Air Temp Water Temp Dewpoint Dewpoint Depression Visibility Wind Speed Wind Dir Waves Ship Positions

Cmb Sakura

Last reported at 2016-May-24 15:04 UTC. Time now 2016-May-28 00:07 UTC.
Position S 33°52' E 017°57'.

Length 225 m; draft 7.6 m.

Type: Cargo ship. MMSI: 371784000.

Date/timePositionNaut miles runAvg speedWind from/ knotsBaromVisibWave heightAir tempDewpointWater temp
2016-May-24 15:04S 33°52' E 017°57'611.4
2016-May-24 14:33S 33°51' E 018°04'7 7.0
2016-May-24 13:32S 33°50' E 018°13'0 0.5
2016-May-24 12:32S 33°50' E 018°13'1 0.7
2016-May-24 11:32S 33°51' E 018°13'1 0.7
2016-May-24 10:33S 33°51' E 018°12'2 2.4
2016-May-24 09:33S 33°53' E 018°11'5 5.3
2016-May-24 08:33S 33°59' E 018°10'10 6.6
2016-May-24 07:04S 34°08' E 018°12'16 9.3
2016-May-24 05:23S 34°23' E 018°20'  

Dump ship's entire track history